sensor_id;sensor_type;location;lat;lon;timestamp;pressure;altitude;pressure_sealevel;temperature;humidity
69524;BME280;56723;42.694;23.286;2023-02-10T00:01:12;96870.59;;;-7.17;83.20
69524;BME280;56723;42.694;23.286;2023-02-10T00:03:40;96867.25;;;-7.19;83.12
69524;BME280;56723;42.694;23.286;2023-02-10T00:06:09;96865.59;;;-7.20;83.60
69524;BME280;56723;42.694;23.286;2023-02-10T00:08:36;96866.50;;;-7.28;83.69
69524;BME280;56723;42.694;23.286;2023-02-10T00:11:05;96869.06;;;-7.31;83.71
69524;BME280;56723;42.694;23.286;2023-02-10T00:13:33;96866.53;;;-7.31;83.73
69524;BME280;56723;42.694;23.286;2023-02-10T00:16:01;96868.25;;;-7.37;83.93
69524;BME280;56723;42.694;23.286;2023-02-10T00:18:29;96855.69;;;-7.40;84.22
69524;BME280;56723;42.694;23.286;2023-02-10T00:20:56;96867.41;;;-7.37;84.47
69524;BME280;56723;42.694;23.286;2023-02-10T00:23:31;96855.72;;;-7.43;84.47
69524;BME280;56723;42.694;23.286;2023-02-10T00:25:57;96853.97;;;-7.38;84.27
69524;BME280;56723;42.694;23.286;2023-02-10T00:28:24;96859.88;;;-7.42;84.50
69524;BME280;56723;42.694;23.286;2023-02-10T00:30:51;96857.44;;;-7.49;84.61
69524;BME280;56723;42.694;23.286;2023-02-10T00:33:18;96859.13;;;-7.48;84.76
69524;BME280;56723;42.694;23.286;2023-02-10T00:35:45;96860.84;;;-7.55;85.05
69524;BME280;56723;42.694;23.286;2023-02-10T00:38:13;96848.34;;;-7.64;85.63
69524;BME280;56723;42.694;23.286;2023-02-10T00:40:39;96852.59;;;-7.74;85.71
69524;BME280;56723;42.694;23.286;2023-02-10T00:43:06;96857.59;;;-7.72;85.78
69524;BME280;56723;42.694;23.286;2023-02-10T00:45:33;96841.75;;;-7.83;85.96
69524;BME280;56723;42.694;23.286;2023-02-10T00:48:00;96828.38;;;-7.91;86.44
69524;BME280;56723;42.694;23.286;2023-02-10T00:50:27;96846.78;;;-7.83;86.37
69524;BME280;56723;42.694;23.286;2023-02-10T01:40:09;96811.09;;;-8.35;89.87
69524;BME280;56723;42.694;23.286;2023-02-10T01:42:36;96812.75;;;-8.34;89.98
69524;BME280;56723;42.694;23.286;2023-02-10T01:45:40;96816.94;;;-8.32;90.19
69524;BME280;56723;42.694;23.286;2023-02-10T01:48:08;96806.88;;;-8.32;90.14
69524;BME280;56723;42.694;23.286;2023-02-10T01:50:41;96806.88;;;-8.32;90.43
69524;BME280;56723;42.694;23.286;2023-02-10T01:53:11;96801.00;;;-8.34;90.24
69524;BME280;56723;42.694;23.286;2023-02-10T03:19:30;96781.28;;;-9.22;92.75
69524;BME280;56723;42.694;23.286;2023-02-10T03:21:57;96773.75;;;-9.22;93.02
69524;BME280;56723;42.694;23.286;2023-02-10T03:24:24;96775.44;;;-9.18;92.91
69524;BME280;56723;42.694;23.286;2023-02-10T03:26:50;96780.44;;;-9.14;92.94
69524;BME280;56723;42.694;23.286;2023-02-10T06:02:10;96817.31;;;-9.72;96.02
69524;BME280;56723;42.694;23.286;2023-02-10T06:04:37;96827.34;;;-9.63;95.93
69524;BME280;56723;42.694;23.286;2023-02-10T06:07:04;96831.53;;;-9.56;95.61
69524;BME280;56723;42.694;23.286;2023-02-10T06:09:31;96826.53;;;-9.54;94.99
69524;BME280;56723;42.694;23.286;2023-02-10T06:11:58;96831.50;;;-9.44;94.91
69524;BME280;56723;42.694;23.286;2023-02-10T06:50:53;96848.81;;;-8.40;90.32
69524;BME280;56723;42.694;23.286;2023-02-10T06:53:20;96852.91;;;-8.22;89.92
69524;BME280;56723;42.694;23.286;2023-02-10T06:55:47;96853.69;;;-8.16;88.95
69524;BME280;56723;42.694;23.286;2023-02-10T06:58:15;96860.34;;;-8.02;87.69
69524;BME280;56723;42.694;23.286;2023-02-10T07:00:42;96864.47;;;-7.94;87.61
69524;BME280;56723;42.694;23.286;2023-02-10T07:03:12;96858.53;;;-7.85;86.80
69524;BME280;56723;42.694;23.286;2023-02-10T07:05:39;96876.91;;;-7.74;86.38
69524;BME280;56723;42.694;23.286;2023-02-10T07:08:07;96860.09;;;-7.69;85.67
69524;BME280;56723;42.694;23.286;2023-02-10T07:10:34;96857.50;;;-7.58;84.92
69524;BME280;56723;42.694;23.286;2023-02-10T07:13:01;96856.59;;;-7.50;84.48
69524;BME280;56723;42.694;23.286;2023-02-10T07:15:28;96856.50;;;-7.38;84.01
69524;BME280;56723;42.694;23.286;2023-02-10T07:55:10;96849.56;;;-6.35;75.85
69524;BME280;56723;42.694;23.286;2023-02-10T07:57:37;96849.44;;;-6.25;74.78
69524;BME280;56723;42.694;23.286;2023-02-10T08:00:09;96859.31;;;-6.10;72.53
69524;BME280;56723;42.694;23.286;2023-02-10T08:02:40;96857.38;;;-5.90;72.78
69524;BME280;56723;42.694;23.286;2023-02-10T08:05:08;96855.25;;;-5.61;71.92
69524;BME280;56723;42.694;23.286;2023-02-10T08:07:35;96842.44;;;-5.50;69.62
69524;BME280;56723;42.694;23.286;2023-02-10T08:10:03;96855.34;;;-5.14;67.85
69524;BME280;56723;42.694;23.286;2023-02-10T08:12:30;96855.00;;;-4.96;67.38
69524;BME280;56723;42.694;23.286;2023-02-10T08:14:59;96840.28;;;-4.74;65.42
69524;BME280;56723;42.694;23.286;2023-02-10T08:17:27;96838.31;;;-4.59;64.77
69524;BME280;56723;42.694;23.286;2023-02-10T08:19:54;96848.94;;;-4.41;63.20
69524;BME280;56723;42.694;23.286;2023-02-10T08:22:21;96843.66;;;-4.29;63.41
69524;BME280;56723;42.694;23.286;2023-02-10T08:24:48;96840.31;;;-3.91;59.85
69524;BME280;56723;42.694;23.286;2023-02-10T08:27:15;96832.56;;;-3.85;60.70
69524;BME280;56723;42.694;23.286;2023-02-10T08:29:42;96829.53;;;-3.64;59.24
69524;BME280;56723;42.694;23.286;2023-02-10T08:32:09;96827.34;;;-3.77;57.92
69524;BME280;56723;42.694;23.286;2023-02-10T08:34:36;96832.28;;;-4.10;59.17
69524;BME280;56723;42.694;23.286;2023-02-10T08:37:05;96832.28;;;-4.10;60.64
69524;BME280;56723;42.694;23.286;2023-02-10T08:39:32;96839.25;;;-3.83;59.55
69524;BME280;56723;42.694;23.286;2023-02-10T08:41:58;96832.47;;;-3.45;58.36
69524;BME280;56723;42.694;23.286;2023-02-10T08:44:25;96831.13;;;-3.24;56.83
69524;BME280;56723;42.694;23.286;2023-02-10T08:46:52;96829.84;;;-3.06;55.42
69524;BME280;56723;42.694;23.286;2023-02-10T08:49:19;96835.00;;;-2.77;55.79
69524;BME280;56723;42.694;23.286;2023-02-10T08:51:46;96835.03;;;-2.46;53.48
69524;BME280;56723;42.694;23.286;2023-02-10T08:54:13;96822.16;;;-2.11;53.19
69524;BME280;56723;42.694;23.286;2023-02-10T08:56:40;96825.22;;;-1.71;51.27
69524;BME280;56723;42.694;23.286;2023-02-10T08:59:07;96824.75;;;-1.56;50.10
69524;BME280;56723;42.694;23.286;2023-02-10T09:01:34;96817.72;;;-1.48;48.71
69524;BME280;56723;42.694;23.286;2023-02-10T09:04:01;96820.16;;;-1.45;47.76
69524;BME280;56723;42.694;23.286;2023-02-10T09:06:34;96809.81;;;-1.39;47.98
69524;BME280;56723;42.694;23.286;2023-02-10T09:09:10;96804.41;;;-1.56;46.91
69524;BME280;56723;42.694;23.286;2023-02-10T09:11:37;96806.72;;;-1.49;47.91
69524;BME280;56723;42.694;23.286;2023-02-10T09:14:04;96809.84;;;-1.41;47.80
69524;BME280;56723;42.694;23.286;2023-02-10T09:16:32;96796.94;;;-1.10;47.94
69524;BME280;56723;42.694;23.286;2023-02-10T09:19:00;96804.66;;;-0.86;45.84
69524;BME280;56723;42.694;23.286;2023-02-10T09:21:27;96807.88;;;-0.81;45.51
69524;BME280;56723;42.694;23.286;2023-02-10T09:24:10;96797.94;;;-0.64;45.16
69524;BME280;56723;42.694;23.286;2023-02-10T09:26:37;96805.47;;;-0.61;44.96
69524;BME280;56723;42.694;23.286;2023-02-10T09:29:04;96793.34;;;-0.54;45.10
69524;BME280;56723;42.694;23.286;2023-02-10T09:31:31;96800.06;;;-0.28;44.61
69524;BME280;56723;42.694;23.286;2023-02-10T09:33:58;96797.78;;;-0.36;44.11
69524;BME280;56723;42.694;23.286;2023-02-10T09:36:25;96790.81;;;-0.31;44.98
69524;BME280;56723;42.694;23.286;2023-02-10T09:38:54;96792.31;;;-0.25;43.72
69524;BME280;56723;42.694;23.286;2023-02-10T09:44:08;96780.25;;;-0.44;43.85
69524;BME280;56723;42.694;23.286;2023-02-10T09:49:57;96782.22;;;-0.05;46.38
69524;BME280;56723;42.694;23.286;2023-02-10T09:55:49;96759.78;;;0.47;43.17
69524;BME280;56723;42.694;23.286;2023-02-10T09:58:26;96769.75;;;0.53;42.49
69524;BME280;56723;42.694;23.286;2023-02-10T10:01:45;96757.97;;;0.28;41.95
69524;BME280;56723;42.694;23.286;2023-02-10T10:04:07;96763.78;;;0.10;43.86
69524;BME280;56723;42.694;23.286;2023-02-10T10:06:38;96757.09;;;0.29;42.84
69524;BME280;56723;42.694;23.286;2023-02-10T10:11:51;96750.50;;;0.24;42.18
69524;BME280;56723;42.694;23.286;2023-02-10T10:14:28;96740.84;;;0.10;43.15
69524;BME280;56723;42.694;23.286;2023-02-10T10:36:42;96709.69;;;1.07;41.19
69524;BME280;56723;42.694;23.286;2023-02-10T10:39:15;96707.75;;;1.30;40.39
69524;BME280;56723;42.694;23.286;2023-02-10T10:41:44;96704.63;;;1.44;40.60
69524;BME280;56723;42.694;23.286;2023-02-10T10:44:16;96703.50;;;1.68;39.85
69524;BME280;56723;42.694;23.286;2023-02-10T10:46:50;96695.72;;;1.89;38.89
69524;BME280;56723;42.694;23.286;2023-02-10T10:49:18;96684.06;;;2.02;38.40
69524;BME280;56723;42.694;23.286;2023-02-10T10:51:45;96696.38;;;2.11;38.51
69524;BME280;56723;42.694;23.286;2023-02-10T10:54:17;96687.53;;;2.18;37.91
69524;BME280;56723;42.694;23.286;2023-02-10T10:56:56;96689.13;;;2.21;37.09
69524;BME280;56723;42.694;23.286;2023-02-10T10:59:38;96686.38;;;2.06;37.37
69524;BME280;56723;42.694;23.286;2023-02-10T11:02:17;96684.06;;;2.02;37.44
69524;BME280;56723;42.694;23.286;2023-02-10T11:04:45;96674.72;;;2.01;39.66
69524;BME280;56723;42.694;23.286;2023-02-10T11:07:19;96674.75;;;2.18;38.19
69524;BME280;56723;42.694;23.286;2023-02-10T11:09:50;96677.31;;;2.35;38.60
69524;BME280;56723;42.694;23.286;2023-02-10T11:12:33;96675.81;;;2.66;37.47
69524;BME280;56723;42.694;23.286;2023-02-10T11:15:03;96674.09;;;2.99;37.46
69524;BME280;56723;42.694;23.286;2023-02-10T11:17:45;96661.59;;;3.26;36.46
69524;BME280;56723;42.694;23.286;2023-02-10T11:22:40;96644.19;;;3.33;35.27
69524;BME280;56723;42.694;23.286;2023-02-10T11:25:31;96647.97;;;3.41;35.02
69524;BME280;56723;42.694;23.286;2023-02-10T11:28:00;96645.34;;;3.43;35.79
69524;BME280;56723;42.694;23.286;2023-02-10T11:30:29;96642.31;;;3.52;35.01
69524;BME280;56723;42.694;23.286;2023-02-10T11:32:57;96650.38;;;3.29;35.38
69524;BME280;56723;42.694;23.286;2023-02-10T11:35:25;96636.97;;;3.24;35.39
69524;BME280;56723;42.694;23.286;2023-02-10T11:37:58;96638.56;;;3.26;36.01
69524;BME280;56723;42.694;23.286;2023-02-10T11:40:29;96634.25;;;3.27;35.53
69524;BME280;56723;42.694;23.286;2023-02-10T11:42:58;96628.78;;;3.17;35.50
69524;BME280;56723;42.694;23.286;2023-02-10T11:45:30;96635.97;;;3.10;35.97
69524;BME280;56723;42.694;23.286;2023-02-10T11:48:01;96630.94;;;3.25;35.92
69524;BME280;56723;42.694;23.286;2023-02-10T11:50:32;96631.69;;;3.58;35.87
69524;BME280;56723;42.694;23.286;2023-02-10T11:52:59;96626.16;;;3.81;35.40
69524;BME280;56723;42.694;23.286;2023-02-10T11:55:58;96629.47;;;3.83;35.56
69524;BME280;56723;42.694;23.286;2023-02-10T12:04:33;96611.06;;;3.91;35.14
69524;BME280;56723;42.694;23.286;2023-02-10T12:07:25;96610.97;;;3.47;37.34
69524;BME280;56723;42.694;23.286;2023-02-10T12:15:22;96596.97;;;4.28;34.59
69524;BME280;56723;42.694;23.286;2023-02-10T12:20:42;96584.13;;;4.44;34.40
69524;BME280;56723;42.694;23.286;2023-02-10T12:34:28;96583.75;;;5.07;33.53
69524;BME280;56723;42.694;23.286;2023-02-10T12:42:45;96571.56;;;4.53;33.90
69524;BME280;56723;42.694;23.286;2023-02-10T12:53:53;96561.38;;;4.52;34.09
69524;BME280;56723;42.694;23.286;2023-02-10T12:56:40;96561.56;;;4.49;34.94
69524;BME280;56723;42.694;23.286;2023-02-10T12:59:23;96563.50;;;4.60;34.19
69524;BME280;56723;42.694;23.286;2023-02-10T13:01:56;96567.72;;;4.75;34.22
69524;BME280;56723;42.694;23.286;2023-02-10T13:04:36;96560.00;;;4.89;33.85
69524;BME280;56723;42.694;23.286;2023-02-10T13:07:25;96559.56;;;4.97;34.40
69524;BME280;56723;42.694;23.286;2023-02-10T13:10:26;96564.22;;;4.90;34.13
69524;BME280;56723;42.694;23.286;2023-02-10T13:13:01;96562.66;;;4.87;39.95
69524;BME280;56723;42.694;23.286;2023-02-10T13:15:35;96561.41;;;4.80;37.66
69524;BME280;56723;42.694;23.286;2023-02-10T13:18:16;96569.75;;;4.98;37.90
69524;BME280;56723;42.694;23.286;2023-02-10T13:29:42;96569.22;;;5.61;34.64
69524;BME280;56723;42.694;23.286;2023-02-10T13:32:13;96564.34;;;5.71;34.28
69524;BME280;56723;42.694;23.286;2023-02-10T13:34:44;96558.94;;;5.61;34.05
69524;BME280;56723;42.694;23.286;2023-02-10T13:39:54;96560.78;;;5.59;33.88
69524;BME280;56723;42.694;23.286;2023-02-10T13:45:00;96557.25;;;5.74;34.58
69524;BME280;56723;42.694;23.286;2023-02-10T13:47:36;96559.78;;;5.62;33.49
69524;BME280;56723;42.694;23.286;2023-02-10T13:50:16;96543.19;;;5.53;33.63
69524;BME280;56723;42.694;23.286;2023-02-10T13:52:54;96552.16;;;5.60;34.46
69524;BME280;56723;42.694;23.286;2023-02-10T13:58:16;96548.31;;;6.07;33.63
69524;BME280;56723;42.694;23.286;2023-02-10T14:00:51;96568.75;;;5.96;33.38
69524;BME280;56723;42.694;23.286;2023-02-10T14:03:25;96556.19;;;5.64;33.80
69524;BME280;56723;42.694;23.286;2023-02-10T14:06:06;96555.72;;;5.72;33.97
69524;BME280;56723;42.694;23.286;2023-02-10T14:08:44;96553.03;;;5.73;33.67
69524;BME280;56723;42.694;23.286;2023-02-10T14:11:38;96562.41;;;5.74;34.11
69524;BME280;56723;42.694;23.286;2023-02-10T14:17:04;96551.63;;;6.34;33.62
69524;BME280;56723;42.694;23.286;2023-02-10T14:19:37;96539.19;;;6.41;32.97
69524;BME280;56723;42.694;23.286;2023-02-10T14:22:06;96547.94;;;6.25;33.09
69524;BME280;56723;42.694;23.286;2023-02-10T14:24:47;96556.44;;;6.01;33.46
69524;BME280;56723;42.694;23.286;2023-02-10T14:27:18;96550.72;;;6.22;34.70
69524;BME280;56723;42.694;23.286;2023-02-10T14:29:49;96554.13;;;6.74;33.00
69524;BME280;56723;42.694;23.286;2023-02-10T14:32:18;96541.97;;;6.76;32.87
69524;BME280;56723;42.694;23.286;2023-02-10T14:37:22;96537.94;;;6.84;32.16
69524;BME280;56723;42.694;23.286;2023-02-10T14:39:50;96530.25;;;6.46;32.62
69524;BME280;56723;42.694;23.286;2023-02-10T14:42:18;96534.47;;;6.47;32.96
69524;BME280;56723;42.694;23.286;2023-02-10T14:44:48;96535.69;;;6.54;32.73
69524;BME280;56723;42.694;23.286;2023-02-10T14:47:21;96539.59;;;6.60;32.26
69524;BME280;56723;42.694;23.286;2023-02-10T14:49:51;96531.38;;;6.42;32.22
69524;BME280;56723;42.694;23.286;2023-02-10T14:52:30;96543.28;;;6.18;32.20
69524;BME280;56723;42.694;23.286;2023-02-10T14:57:55;96538.44;;;5.47;33.71
69524;BME280;56723;42.694;23.286;2023-02-10T15:00:22;96539.00;;;4.82;34.89
69524;BME280;56723;42.694;23.286;2023-02-10T15:02:55;96553.97;;;4.76;35.47
69524;BME280;56723;42.694;23.286;2023-02-10T15:05:23;96548.28;;;4.57;35.75
69524;BME280;56723;42.694;23.286;2023-02-10T15:07:54;96550.25;;;4.23;36.04
69524;BME280;56723;42.694;23.286;2023-02-10T15:10:38;96546.47;;;4.14;36.11
69524;BME280;56723;42.694;23.286;2023-02-10T15:13:08;96556.91;;;4.11;36.95
69524;BME280;56723;42.694;23.286;2023-02-10T15:15:39;96550.19;;;3.95;36.27
69524;BME280;56723;42.694;23.286;2023-02-10T15:18:17;96561.56;;;3.75;36.24
69524;BME280;56723;42.694;23.286;2023-02-10T15:21:03;96555.88;;;3.54;37.42
69524;BME280;56723;42.694;23.286;2023-02-10T15:23:30;96554.25;;;3.37;36.49
69524;BME280;56723;42.694;23.286;2023-02-10T15:26:05;96552.44;;;3.24;37.10
69524;BME280;56723;42.694;23.286;2023-02-10T15:28:35;96566.00;;;3.10;37.62
69524;BME280;56723;42.694;23.286;2023-02-10T15:31:05;96573.47;;;2.97;37.54
69524;BME280;56723;42.694;23.286;2023-02-10T15:33:50;96567.03;;;2.74;37.60
69524;BME280;56723;42.694;23.286;2023-02-10T15:36:28;96566.66;;;2.65;37.88
69524;BME280;56723;42.694;23.286;2023-02-10T15:41:38;96574.34;;;2.32;38.08
69524;BME280;56723;42.694;23.286;2023-02-10T15:46:49;96575.78;;;2.03;38.22
69524;BME280;56723;42.694;23.286;2023-02-10T15:49:18;96579.69;;;1.93;38.62
69524;BME280;56723;42.694;23.286;2023-02-10T15:51:50;96582.63;;;1.85;38.75
69524;BME280;56723;42.694;23.286;2023-02-10T15:54:23;96591.53;;;1.77;39.08
69524;BME280;56723;42.694;23.286;2023-02-10T15:59:25;96585.56;;;1.59;39.29
69524;BME280;56723;42.694;23.286;2023-02-10T16:01:59;96588.34;;;1.54;39.56
69524;BME280;56723;42.694;23.286;2023-02-10T16:04:27;96590.13;;;1.52;39.30
69524;BME280;56723;42.694;23.286;2023-02-10T16:06:58;96593.13;;;1.43;39.47
69524;BME280;56723;42.694;23.286;2023-02-10T16:09:27;96599.13;;;1.42;40.04
69524;BME280;56723;42.694;23.286;2023-02-10T16:11:54;96599.41;;;1.36;39.77
69524;BME280;56723;42.694;23.286;2023-02-10T16:14:21;96603.44;;;1.23;40.20
69524;BME280;56723;42.694;23.286;2023-02-10T16:16:54;96604.72;;;0.94;42.37
69524;BME280;56723;42.694;23.286;2023-02-10T16:19:24;96613.81;;;0.81;44.18
69524;BME280;56723;42.694;23.286;2023-02-10T16:21:51;96624.50;;;0.70;45.48
69524;BME280;56723;42.694;23.286;2023-02-10T16:24:27;96622.56;;;0.36;48.61
69524;BME280;56723;42.694;23.286;2023-02-10T16:26:55;96626.84;;;-0.07;50.83
69524;BME280;56723;42.694;23.286;2023-02-10T16:29:25;96625.19;;;-0.29;52.05
69524;BME280;56723;42.694;23.286;2023-02-10T16:31:52;96632.06;;;-0.31;52.53
69524;BME280;56723;42.694;23.286;2023-02-10T16:34:19;96620.47;;;-0.39;52.83
69524;BME280;56723;42.694;23.286;2023-02-10T16:36:47;96635.69;;;-0.59;54.73
69524;BME280;56723;42.694;23.286;2023-02-10T16:39:17;96638.94;;;-0.77;55.98
69524;BME280;56723;42.694;23.286;2023-02-10T16:42:10;96647.78;;;-0.87;56.88
69524;BME280;56723;42.694;23.286;2023-02-10T16:44:44;96634.56;;;-0.97;57.50
69524;BME280;56723;42.694;23.286;2023-02-10T16:47:31;96637.28;;;-1.01;57.79
69524;BME280;56723;42.694;23.286;2023-02-10T16:49:58;96638.25;;;-1.06;57.86
69524;BME280;56723;42.694;23.286;2023-02-10T16:52:25;96630.03;;;-1.12;58.17
69524;BME280;56723;42.694;23.286;2023-02-10T16:54:52;96645.50;;;-1.18;58.67
69524;BME280;56723;42.694;23.286;2023-02-10T16:57:19;96648.22;;;-1.23;58.22
69524;BME280;56723;42.694;23.286;2023-02-10T16:59:46;96647.75;;;-1.34;58.83
69524;BME280;56723;42.694;23.286;2023-02-10T17:02:15;96658.03;;;-1.37;59.23
69524;BME280;56723;42.694;23.286;2023-02-10T17:04:42;96642.84;;;-1.38;58.90
69524;BME280;56723;42.694;23.286;2023-02-10T17:07:09;96652.38;;;-1.45;59.22
69524;BME280;56723;42.694;23.286;2023-02-10T17:09:37;96649.81;;;-1.45;59.05
69524;BME280;56723;42.694;23.286;2023-02-10T17:12:05;96649.81;;;-1.45;59.89
69524;BME280;56723;42.694;23.286;2023-02-10T17:14:32;96650.59;;;-1.43;59.48
69524;BME280;56723;42.694;23.286;2023-02-10T17:16:58;96645.69;;;-1.48;58.90
69524;BME280;56723;42.694;23.286;2023-02-10T17:19:26;96656.56;;;-1.44;58.85
69524;BME280;56723;42.694;23.286;2023-02-10T17:21:54;96650.59;;;-1.43;59.15
69524;BME280;56723;42.694;23.286;2023-02-10T17:24:21;96659.13;;;-1.44;59.15
69524;BME280;56723;42.694;23.286;2023-02-10T17:26:49;96664.25;;;-1.46;58.92
69524;BME280;56723;42.694;23.286;2023-02-10T17:29:17;96664.44;;;-1.50;59.21
69524;BME280;56723;42.694;23.286;2023-02-10T17:31:44;96665.41;;;-1.54;59.09
69524;BME280;56723;42.694;23.286;2023-02-10T17:34:11;96657.72;;;-1.53;60.20
69524;BME280;56723;42.694;23.286;2023-02-10T17:36:38;96665.41;;;-1.54;60.09
69524;BME280;56723;42.694;23.286;2023-02-10T17:39:10;96676.41;;;-1.54;60.12
69524;BME280;56723;42.694;23.286;2023-02-10T17:42:00;96671.28;;;-1.52;60.33
69524;BME280;56723;42.694;23.286;2023-02-10T17:44:27;96682.97;;;-1.48;59.33
69524;BME280;56723;42.694;23.286;2023-02-10T17:46:57;96687.97;;;-1.45;59.97
69524;BME280;56723;42.694;23.286;2023-02-10T17:49:26;96682.00;;;-1.44;59.73
69524;BME280;56723;42.694;23.286;2023-02-10T17:51:55;96683.97;;;-1.52;59.14
69524;BME280;56723;42.694;23.286;2023-02-10T17:54:22;96682.72;;;-1.65;58.90
69524;BME280;56723;42.694;23.286;2023-02-10T17:56:49;96679.75;;;-1.78;59.00
69524;BME280;56723;42.694;23.286;2023-02-10T17:59:17;96688.34;;;-1.82;60.02
69524;BME280;56723;42.694;23.286;2023-02-10T18:01:44;96690.28;;;-1.89;60.18
69524;BME280;56723;42.694;23.286;2023-02-10T18:04:13;96688.69;;;-1.93;60.61
69524;BME280;56723;42.694;23.286;2023-02-10T18:06:42;96693.00;;;-1.95;58.76
69524;BME280;56723;42.694;23.286;2023-02-10T18:09:09;96689.09;;;-2.05;57.65
69524;BME280;56723;42.694;23.286;2023-02-10T18:11:37;96696.59;;;-2.02;59.90
69524;BME280;56723;42.694;23.286;2023-02-10T18:14:05;96692.31;;;-2.00;57.94
69524;BME280;56723;42.694;23.286;2023-02-10T18:16:32;96694.84;;;-2.00;57.94
69524;BME280;56723;42.694;23.286;2023-02-10T18:18:59;96699.25;;;-2.05;57.72
69524;BME280;56723;42.694;23.286;2023-02-10T18:21:26;96695.75;;;-2.02;58.25
69524;BME280;56723;42.694;23.286;2023-02-10T18:23:53;96698.44;;;-2.05;58.47
69524;BME280;56723;42.694;23.286;2023-02-10T18:26:20;96707.63;;;-2.03;57.04
69524;BME280;56723;42.694;23.286;2023-02-10T18:28:47;96695.94;;;-2.07;57.87
69524;BME280;56723;42.694;23.286;2023-02-10T18:31:14;96712.00;;;-2.06;57.69
69524;BME280;56723;42.694;23.286;2023-02-10T18:33:41;96712.19;;;-2.13;57.66
69524;BME280;56723;42.694;23.286;2023-02-10T18:36:10;96721.31;;;-2.07;57.85
69524;BME280;56723;42.694;23.286;2023-02-10T18:38:37;96714.59;;;-2.08;57.99
69524;BME280;56723;42.694;23.286;2023-02-10T18:41:04;96719.44;;;-2.02;57.54
69524;BME280;56723;42.694;23.286;2023-02-10T18:43:32;96721.13;;;-2.01;57.81
69524;BME280;56723;42.694;23.286;2023-02-10T18:45:59;96714.50;;;-2.05;57.63
69524;BME280;56723;42.694;23.286;2023-02-10T18:48:26;96723.69;;;-2.02;56.97
69524;BME280;56723;42.694;23.286;2023-02-10T18:50:53;96727.06;;;-2.02;56.93
69524;BME280;56723;42.694;23.286;2023-02-10T18:53:20;96723.69;;;-2.02;56.69
69524;BME280;56723;42.694;23.286;2023-02-10T18:55:49;96726.28;;;-2.04;56.45
69524;BME280;56723;42.694;23.286;2023-02-10T18:58:18;96722.16;;;-2.06;56.63
69524;BME280;56723;42.694;23.286;2023-02-10T19:00:46;96733.03;;;-2.03;56.85
69524;BME280;56723;42.694;23.286;2023-02-10T19:03:13;96723.06;;;-2.09;57.05
69524;BME280;56723;42.694;23.286;2023-02-10T19:05:40;96736.59;;;-2.08;57.05
69524;BME280;56723;42.694;23.286;2023-02-10T19:08:07;96739.97;;;-2.08;57.27
69524;BME280;56723;42.694;23.286;2023-02-10T19:10:35;96740.81;;;-2.07;57.29
69524;BME280;56723;42.694;23.286;2023-02-10T19:13:04;96735.88;;;-2.12;57.85
69524;BME280;56723;42.694;23.286;2023-02-10T19:15:31;96740.06;;;-2.11;57.86
69524;BME280;56723;42.694;23.286;2023-02-10T19:18:15;96746.06;;;-2.14;57.80
69524;BME280;56723;42.694;23.286;2023-02-10T19:20:42;96744.53;;;-2.19;57.79
69524;BME280;56723;42.694;23.286;2023-02-10T19:23:09;96734.53;;;-2.24;57.73
69524;BME280;56723;42.694;23.286;2023-02-10T19:25:36;96750.47;;;-2.20;57.53
69524;BME280;56723;42.694;23.286;2023-02-10T19:28:03;96744.69;;;-2.24;58.05
69524;BME280;56723;42.694;23.286;2023-02-10T19:30:30;96751.56;;;-2.27;57.23
69524;BME280;56723;42.694;23.286;2023-02-10T19:32:57;96754.09;;;-2.27;57.68
69524;BME280;56723;42.694;23.286;2023-02-10T19:35:24;96753.31;;;-2.29;58.35
69524;BME280;56723;42.694;23.286;2023-02-10T19:37:51;96751.66;;;-2.30;57.85
69524;BME280;56723;42.694;23.286;2023-02-10T19:40:18;96753.41;;;-2.32;57.20
69524;BME280;56723;42.694;23.286;2023-02-10T19:42:45;96755.94;;;-2.32;56.92
69524;BME280;56723;42.694;23.286;2023-02-10T19:45:12;96752.59;;;-2.34;57.06
69524;BME280;56723;42.694;23.286;2023-02-10T19:47:39;96753.47;;;-2.35;56.96
69524;BME280;56723;42.694;23.286;2023-02-10T19:50:06;96758.59;;;-2.37;57.20
69524;BME280;56723;42.694;23.286;2023-02-10T19:52:34;96758.75;;;-2.41;57.35
69524;BME280;56723;42.694;23.286;2023-02-10T19:55:05;96750.41;;;-2.45;57.68
69524;BME280;56723;42.694;23.286;2023-02-10T19:57:32;96754.56;;;-2.42;57.54
69524;BME280;56723;42.694;23.286;2023-02-10T19:59:58;96761.28;;;-2.41;57.37
69524;BME280;56723;42.694;23.286;2023-02-10T20:02:25;96768.13;;;-2.43;57.47
69524;BME280;56723;42.694;23.286;2023-02-10T20:04:52;96756.44;;;-2.49;57.51
69524;BME280;56723;42.694;23.286;2023-02-10T20:07:19;96758.06;;;-2.47;57.68
69524;BME280;56723;42.694;23.286;2023-02-10T20:09:47;96756.50;;;-2.52;57.88
69524;BME280;56723;42.694;23.286;2023-02-10T20:12:13;96765.88;;;-2.54;58.37
69524;BME280;56723;42.694;23.286;2023-02-10T20:14:40;96761.00;;;-2.60;58.29
69524;BME280;56723;42.694;23.286;2023-02-10T20:17:07;96765.13;;;-2.58;58.79
69524;BME280;56723;42.694;23.286;2023-02-10T20:19:34;96757.66;;;-2.62;59.21
69524;BME280;56723;42.694;23.286;2023-02-10T20:22:01;96752.78;;;-2.70;59.54
69524;BME280;56723;42.694;23.286;2023-02-10T20:24:28;96767.22;;;-2.72;59.86
69524;BME280;56723;42.694;23.286;2023-02-10T20:26:55;96773.94;;;-2.71;59.99
69524;BME280;56723;42.694;23.286;2023-02-10T20:29:22;96770.53;;;-2.70;60.31
69524;BME280;56723;42.694;23.286;2023-02-10T20:31:49;96775.63;;;-2.70;60.59
69524;BME280;56723;42.694;23.286;2023-02-10T20:34:16;96779.03;;;-2.71;60.90
69524;BME280;56723;42.694;23.286;2023-02-10T20:36:43;96768.19;;;-2.78;61.27
69524;BME280;56723;42.694;23.286;2023-02-10T20:39:11;96774.88;;;-2.73;61.75
69524;BME280;56723;42.694;23.286;2023-02-10T20:41:39;96773.16;;;-2.73;61.77
69524;BME280;56723;42.694;23.286;2023-02-10T20:44:06;96779.09;;;-2.74;61.68
69524;BME280;56723;42.694;23.286;2023-02-10T20:46:33;96766.50;;;-2.77;62.09
69524;BME280;56723;42.694;23.286;2023-02-10T20:49:01;96774.09;;;-2.77;62.66
69524;BME280;56723;42.694;23.286;2023-02-10T20:51:32;96766.59;;;-2.80;62.83
69524;BME280;56723;42.694;23.286;2023-02-10T20:53:59;96770.88;;;-2.82;63.51